createdAt,value
2022-11-30T00:01:23.585Z,14.15
2022-11-30T00:03:54.673Z,13.75
2022-11-30T00:06:23.548Z,14.90
2022-11-30T00:08:55.347Z,14.77
2022-11-30T00:11:23.870Z,14.13
2022-11-30T00:13:50.593Z,14.05
2022-11-30T00:16:17.085Z,14.00
2022-11-30T00:18:43.605Z,14.18
2022-11-30T00:21:12.984Z,15.02
2022-11-30T00:23:42.882Z,15.20
2022-11-30T00:26:12.083Z,13.30
2022-11-30T00:28:39.773Z,12.75
2022-11-30T00:31:10.182Z,14.07
2022-11-30T00:33:38.217Z,14.05
2022-11-30T00:36:08.100Z,14.30
2022-11-30T00:38:34.976Z,13.48
2022-11-30T00:41:02.028Z,13.77
2022-11-30T00:43:29.118Z,16.10
2022-11-30T00:45:55.820Z,14.32
2022-11-30T00:48:22.292Z,13.77
2022-11-30T00:50:49.979Z,13.85
2022-11-30T00:53:17.055Z,12.90
2022-11-30T00:55:44.537Z,13.00
2022-11-30T00:58:11.943Z,12.60
2022-11-30T01:00:38.405Z,13.35
2022-11-30T01:03:05.678Z,12.55
2022-11-30T01:05:35.738Z,12.98
2022-11-30T01:08:03.878Z,13.32
2022-11-30T01:10:30.623Z,13.13
2022-11-30T01:12:57.221Z,12.98
2022-11-30T01:15:23.752Z,13.77
2022-11-30T01:17:50.302Z,14.75
2022-11-30T01:20:16.754Z,15.63
2022-11-30T01:22:43.238Z,15.25
2022-11-30T01:25:09.823Z,14.25
2022-11-30T01:27:36.301Z,14.63
2022-11-30T01:30:03.041Z,13.80
2022-11-30T01:32:29.462Z,15.18
2022-11-30T01:34:55.881Z,16.48
2022-11-30T01:37:23.103Z,14.95
2022-11-30T01:39:49.558Z,16.40
2022-11-30T01:42:18.699Z,16.40
2022-11-30T01:44:56.999Z,16.08
2022-11-30T01:47:29.611Z,16.23
2022-11-30T01:50:13.454Z,15.60
2022-11-30T01:52:43.509Z,15.43
2022-11-30T01:55:12.644Z,14.90
2022-11-30T01:57:43.877Z,15.60
2022-11-30T02:00:14.343Z,14.65
2022-11-30T02:02:55.054Z,16.15
2022-11-30T02:05:24.505Z,15.00
2022-11-30T02:07:51.444Z,15.45
2022-11-30T02:10:23.679Z,15.70
2022-11-30T02:13:21.222Z,14.98
2022-11-30T02:16:02.963Z,13.80
2022-11-30T02:18:39.658Z,14.23
2022-11-30T02:21:30.069Z,15.10
2022-11-30T02:24:17.873Z,14.38
2022-11-30T02:27:13.881Z,14.52
2022-11-30T02:29:58.708Z,14.35
2022-11-30T02:33:04.584Z,14.75
2022-11-30T02:35:34.784Z,13.93
2022-11-30T02:38:03.362Z,14.18
2022-11-30T02:40:30.331Z,14.27
2022-11-30T02:43:00.103Z,12.85
2022-11-30T02:45:31.721Z,13.70
2022-11-30T02:48:07.843Z,13.55
2022-11-30T02:50:41.058Z,12.57
2022-11-30T02:53:09.598Z,13.52
2022-11-30T02:55:36.104Z,12.43
2022-11-30T02:58:02.604Z,13.35
2022-11-30T03:00:29.068Z,14.13
2022-11-30T03:02:55.560Z,13.05
2022-11-30T03:05:22.150Z,13.27
2022-11-30T03:07:48.621Z,13.30
2022-11-30T03:10:15.390Z,12.93
2022-11-30T03:12:41.786Z,12.65
2022-11-30T03:15:08.874Z,13.23
2022-11-30T03:17:35.394Z,11.60
2022-11-30T03:20:02.021Z,13.15
2022-11-30T03:22:28.434Z,13.75
2022-11-30T03:24:55.058Z,12.23
2022-11-30T03:27:21.559Z,12.68
2022-11-30T03:29:48.046Z,12.90
2022-11-30T03:32:14.497Z,13.13
2022-11-30T03:34:41.198Z,12.32
2022-11-30T03:37:07.698Z,12.57
2022-11-30T03:39:34.454Z,11.80
2022-11-30T03:42:00.893Z,12.68
2022-11-30T03:44:27.432Z,11.18
2022-11-30T03:46:53.896Z,12.05
2022-11-30T03:49:20.396Z,9.80
2022-11-30T03:51:46.936Z,10.23
2022-11-30T03:54:13.622Z,11.43
2022-11-30T03:56:40.201Z,11.00
2022-11-30T03:59:06.712Z,9.82
2022-11-30T04:01:33.476Z,10.93
2022-11-30T04:03:59.918Z,10.63
2022-11-30T04:06:26.435Z,10.68
2022-11-30T04:08:52.952Z,10.73
2022-11-30T04:11:19.511Z,10.65
2022-11-30T04:13:45.964Z,10.05
2022-11-30T04:16:12.444Z,10.25
2022-11-30T04:18:39.444Z,10.27
2022-11-30T04:21:07.284Z,10.00
2022-11-30T04:23:38.841Z,10.75
2022-11-30T04:26:07.934Z,10.05
2022-11-30T04:28:35.222Z,10.60
2022-11-30T04:31:02.828Z,10.10
2022-11-30T04:33:29.932Z,10.82
2022-11-30T04:35:59.592Z,9.85
2022-11-30T04:38:26.362Z,10.05
2022-11-30T04:40:53.585Z,10.57
2022-11-30T04:43:20.833Z,9.98
2022-11-30T04:45:47.785Z,9.98
2022-11-30T04:48:15.949Z,9.88
2022-11-30T04:50:42.496Z,9.98
2022-11-30T04:53:09.234Z,10.40
2022-11-30T04:55:37.849Z,10.27
2022-11-30T04:58:05.548Z,10.63
2022-11-30T05:00:32.304Z,9.05
2022-11-30T05:02:58.766Z,11.13
2022-11-30T05:05:25.243Z,10.40
2022-11-30T05:07:56.993Z,10.07
2022-11-30T05:10:24.397Z,9.77
2022-11-30T05:12:51.316Z,10.75
2022-11-30T05:15:18.186Z,10.43
2022-11-30T05:17:44.671Z,11.13
2022-11-30T05:20:11.454Z,10.85
2022-11-30T05:22:37.917Z,10.88
2022-11-30T05:25:04.779Z,9.43
2022-11-30T05:27:31.216Z,10.52
2022-11-30T05:29:57.669Z,10.57
2022-11-30T05:32:24.171Z,10.30
2022-11-30T05:34:51.964Z,9.82
2022-11-30T05:37:19.258Z,10.27
2022-11-30T05:39:45.666Z,10.45
2022-11-30T05:42:12.149Z,10.30
2022-11-30T05:44:38.600Z,10.23
2022-11-30T05:47:05.209Z,12.43
2022-11-30T05:49:31.722Z,10.68
2022-11-30T05:51:58.222Z,11.13
2022-11-30T05:54:24.694Z,11.07
2022-11-30T05:56:54.717Z,10.18
2022-11-30T05:59:22.021Z,10.05
2022-11-30T06:01:48.776Z,9.43
2022-11-30T06:04:15.359Z,9.85
2022-11-30T06:06:41.754Z,10.07
2022-11-30T06:09:08.296Z,9.65
2022-11-30T06:11:34.808Z,9.93
2022-11-30T06:14:01.194Z,9.98
2022-11-30T06:16:27.720Z,9.95
2022-11-30T06:18:54.209Z,10.30
2022-11-30T06:21:24.437Z,10.25
2022-11-30T06:23:52.155Z,10.10
2022-11-30T06:26:18.579Z,10.80
2022-11-30T06:28:48.141Z,9.20
2022-11-30T06:31:15.217Z,9.52
2022-11-30T06:33:41.745Z,10.50
2022-11-30T06:36:08.741Z,9.27
2022-11-30T06:38:35.327Z,10.30
2022-11-30T06:41:06.360Z,9.43
2022-11-30T06:43:34.668Z,10.00
2022-11-30T06:46:01.930Z,10.32
2022-11-30T06:48:28.511Z,10.77
2022-11-30T06:50:55.525Z,10.25
2022-11-30T06:53:21.943Z,10.80
2022-11-30T06:55:48.345Z,11.15
2022-11-30T06:58:14.784Z,12.48
2022-11-30T07:00:41.888Z,12.55
2022-11-30T07:03:08.562Z,11.43
2022-11-30T07:05:41.216Z,11.13
2022-11-30T07:08:07.790Z,10.83
2022-11-30T07:10:34.462Z,10.88
2022-11-30T07:13:00.951Z,10.43
2022-11-30T07:15:27.354Z,11.52
2022-11-30T07:17:53.746Z,10.90
2022-11-30T07:20:20.238Z,11.32
2022-11-30T07:22:46.736Z,10.98
2022-11-30T07:25:31.573Z,11.13
2022-11-30T07:27:58.008Z,11.13
2022-11-30T07:30:24.515Z,11.00
2022-11-30T07:32:51.030Z,11.60
2022-11-30T07:35:17.471Z,11.82
2022-11-30T07:37:43.859Z,10.95
2022-11-30T07:40:10.646Z,11.35
2022-11-30T07:42:37.102Z,10.70
2022-11-30T07:45:03.831Z,11.13
2022-11-30T07:47:30.247Z,11.20
2022-11-30T07:49:57.202Z,11.05
2022-11-30T07:52:23.838Z,11.27
2022-11-30T07:54:50.752Z,10.18
2022-11-30T07:57:17.365Z,10.90
2022-11-30T07:59:43.867Z,10.68
2022-11-30T08:02:10.914Z,10.55
2022-11-30T08:04:37.450Z,10.50
2022-11-30T08:07:03.893Z,10.15
2022-11-30T08:09:30.440Z,9.82
2022-11-30T08:11:56.821Z,9.88
2022-11-30T08:14:23.267Z,10.30
2022-11-30T08:16:49.792Z,9.23
2022-11-30T08:19:16.348Z,8.82
2022-11-30T08:21:42.760Z,9.45
2022-11-30T08:24:12.067Z,9.40
2022-11-30T08:26:38.596Z,10.15
2022-11-30T08:29:05.094Z,10.20
2022-11-30T08:31:35.353Z,10.38
2022-11-30T08:34:07.829Z,9.95
2022-11-30T08:36:35.414Z,10.15
2022-11-30T08:39:04.966Z,9.45
2022-11-30T08:41:32.850Z,9.43
2022-11-30T08:43:59.542Z,10.15
2022-11-30T08:49:22.063Z,9.50
2022-11-30T08:54:39.033Z,9.48
2022-11-30T08:57:05.498Z,9.07
2022-11-30T08:59:32.113Z,9.65
2022-11-30T09:01:58.580Z,9.13
2022-11-30T09:04:25.196Z,10.18
2022-11-30T09:06:51.682Z,10.05
2022-11-30T09:09:18.137Z,8.77
2022-11-30T09:11:44.668Z,9.75
2022-11-30T09:14:11.270Z,9.57
2022-11-30T09:16:37.746Z,8.85
2022-11-30T09:19:04.212Z,10.38
2022-11-30T09:21:30.795Z,9.55
2022-11-30T09:23:57.286Z,9.77
2022-11-30T09:26:25.372Z,8.68
2022-11-30T09:28:53.404Z,9.45
2022-11-30T09:31:25.343Z,9.18
2022-11-30T09:33:52.798Z,9.20
2022-11-30T09:36:21.790Z,9.18
2022-11-30T09:38:48.594Z,10.10
2022-11-30T09:41:28.308Z,9.50
2022-11-30T09:44:20.184Z,10.63
2022-11-30T09:46:56.630Z,11.40
2022-11-30T09:49:29.671Z,11.90
2022-11-30T09:51:59.559Z,11.50
2022-11-30T09:54:44.131Z,12.23
2022-11-30T09:57:33.858Z,11.13
2022-11-30T10:00:05.104Z,11.55
2022-11-30T10:02:34.113Z,11.65
2022-11-30T10:05:01.646Z,11.23
2022-11-30T10:07:55.740Z,10.63
2022-11-30T10:10:36.613Z,10.85
2022-11-30T10:13:23.928Z,10.65
2022-11-30T10:15:56.097Z,10.52
2022-11-30T10:18:58.661Z,11.10
2022-11-30T10:21:45.733Z,11.70
2022-11-30T10:24:45.006Z,11.20
2022-11-30T10:27:18.785Z,11.07
2022-11-30T10:32:24.208Z,10.13
2022-11-30T10:35:15.472Z,9.80
2022-11-30T10:37:42.536Z,8.82
2022-11-30T10:40:32.179Z,8.60
2022-11-30T10:43:28.602Z,8.80
2022-11-30T10:45:55.609Z,7.38
2022-11-30T10:48:25.918Z,7.45
2022-11-30T10:50:53.309Z,6.30
2022-11-30T10:53:20.121Z,6.88
2022-11-30T10:55:58.742Z,7.70
2022-11-30T10:58:33.055Z,7.80
2022-11-30T11:01:11.882Z,6.93
2022-11-30T11:03:38.561Z,6.65
2022-11-30T11:06:25.801Z,7.43
2022-11-30T11:08:52.477Z,7.35
2022-11-30T11:11:38.965Z,6.63
2022-11-30T11:14:12.817Z,7.40
2022-11-30T11:17:04.052Z,7.88
2022-11-30T11:19:41.927Z,6.97
2022-11-30T11:22:20.816Z,7.20
2022-11-30T11:24:49.434Z,7.85
2022-11-30T11:27:30.901Z,7.32
2022-11-30T11:30:03.357Z,7.22
2022-11-30T11:32:31.004Z,7.57
2022-11-30T11:34:58.244Z,7.85
2022-11-30T11:37:31.096Z,8.27
2022-11-30T11:40:03.494Z,8.07
2022-11-30T11:42:48.329Z,7.82
2022-11-30T11:45:26.117Z,8.07
2022-11-30T11:48:02.935Z,7.85
2022-11-30T11:51:05.507Z,8.52
2022-11-30T11:54:11.978Z,8.13
2022-11-30T11:56:38.532Z,8.05
2022-11-30T11:59:15.698Z,7.55
2022-11-30T12:01:50.215Z,7.78
2022-11-30T12:04:31.927Z,7.90
2022-11-30T12:07:02.435Z,7.88
2022-11-30T12:09:34.836Z,7.70
2022-11-30T12:12:01.363Z,5.35
2022-11-30T12:14:30.331Z,7.25
2022-11-30T12:17:05.350Z,7.88
2022-11-30T12:19:42.846Z,7.13
2022-11-30T12:22:18.087Z,7.50
2022-11-30T12:24:51.946Z,6.20
2022-11-30T12:27:43.643Z,6.45
2022-11-30T12:30:23.485Z,5.85
2022-11-30T12:33:03.347Z,5.82
2022-11-30T12:35:56.666Z,5.65
2022-11-30T12:38:48.288Z,6.90
2022-11-30T12:41:47.310Z,6.10
2022-11-30T12:44:28.456Z,5.75
2022-11-30T12:47:38.534Z,4.95
2022-11-30T12:50:38.966Z,5.10
2022-11-30T12:53:28.543Z,5.20
2022-11-30T12:56:09.665Z,5.28
2022-11-30T12:58:56.541Z,5.57
2022-11-30T13:01:51.838Z,5.88
2022-11-30T13:04:28.466Z,5.10
2022-11-30T13:07:03.338Z,4.68
2022-11-30T13:09:47.728Z,5.00
2022-11-30T13:12:21.850Z,4.55
2022-11-30T13:14:49.774Z,5.10
2022-11-30T13:17:18.804Z,5.18
2022-11-30T13:20:17.483Z,4.93
2022-11-30T13:23:00.740Z,5.45
2022-11-30T13:28:41.083Z,4.20
2022-11-30T13:31:14.875Z,5.23
2022-11-30T13:33:48.514Z,4.93
2022-11-30T13:36:24.756Z,5.13
2022-11-30T13:39:16.743Z,4.78
2022-11-30T13:41:46.232Z,4.93
2022-11-30T13:44:32.292Z,4.82
2022-11-30T13:47:01.549Z,4.60
2022-11-30T13:49:38.283Z,5.05
2022-11-30T13:52:23.092Z,4.55
2022-11-30T13:54:54.608Z,4.60
2022-11-30T13:57:30.103Z,4.97
2022-11-30T13:59:58.755Z,4.60
2022-11-30T14:02:36.260Z,3.65
2022-11-30T14:05:21.918Z,4.03
2022-11-30T14:08:00.300Z,5.20
2022-11-30T14:10:39.150Z,4.07
2022-11-30T14:13:11.299Z,4.55
2022-11-30T14:15:41.678Z,4.50
2022-11-30T14:18:08.049Z,3.80
2022-11-30T14:21:11.595Z,4.22
2022-11-30T14:24:13.224Z,3.92
2022-11-30T14:26:44.729Z,4.22
2022-11-30T14:29:18.742Z,4.35
2022-11-30T14:31:48.226Z,4.25
2022-11-30T14:34:19.734Z,4.32
2022-11-30T14:36:55.165Z,4.10
2022-11-30T14:39:31.719Z,4.30
2022-11-30T14:41:58.413Z,3.58
2022-11-30T14:44:24.919Z,4.22
2022-11-30T14:46:51.862Z,3.78
2022-11-30T14:49:23.540Z,3.30
2022-11-30T14:51:58.870Z,3.08
2022-11-30T14:54:44.052Z,3.33
2022-11-30T14:57:32.167Z,4.18
2022-11-30T14:59:58.786Z,3.53
2022-11-30T15:02:31.008Z,3.63
2022-11-30T15:04:59.009Z,3.60
2022-11-30T15:07:27.570Z,3.95
2022-11-30T15:10:03.563Z,3.50
2022-11-30T15:12:30.337Z,3.42
2022-11-30T15:15:12.333Z,3.88
2022-11-30T15:17:51.406Z,3.53
2022-11-30T15:20:38.274Z,3.75
2022-11-30T15:23:05.099Z,3.65
2022-11-30T15:25:56.428Z,3.40
2022-11-30T15:28:37.798Z,4.05
2022-11-30T15:31:09.522Z,3.55
2022-11-30T15:33:47.339Z,3.03
2022-11-30T15:36:28.255Z,3.22
2022-11-30T15:39:00.878Z,2.78
2022-11-30T15:41:27.415Z,2.85
2022-11-30T15:43:56.534Z,3.08
2022-11-30T15:46:35.237Z,3.00
2022-11-30T15:49:29.277Z,2.90
2022-11-30T15:55:04.056Z,2.70
2022-11-30T15:58:00.464Z,2.90
2022-11-30T16:00:27.822Z,3.08
2022-11-30T16:03:11.032Z,3.17
2022-11-30T16:05:39.500Z,4.15
2022-11-30T16:08:14.619Z,3.90
2022-11-30T16:10:43.683Z,3.88
2022-11-30T16:13:14.616Z,4.20
2022-11-30T16:15:48.372Z,4.25
2022-11-30T16:18:18.930Z,5.38
2022-11-30T16:20:48.152Z,6.50
2022-11-30T16:23:15.571Z,8.25
2022-11-30T16:25:43.451Z,7.55
2022-11-30T16:28:11.095Z,7.43
2022-11-30T16:30:38.516Z,7.30
2022-11-30T16:33:05.430Z,7.70
2022-11-30T16:35:42.198Z,8.93
2022-11-30T16:38:08.703Z,8.57
2022-11-30T16:40:38.807Z,8.85
2022-11-30T16:43:05.787Z,9.18
2022-11-30T16:45:36.985Z,9.05
2022-11-30T16:48:04.346Z,8.60
2022-11-30T16:50:34.948Z,9.63
2022-11-30T16:53:02.561Z,9.77
2022-11-30T16:55:31.914Z,8.10
2022-11-30T16:57:58.678Z,8.95
2022-11-30T17:00:25.138Z,8.50
2022-11-30T17:03:09.777Z,8.70
2022-11-30T17:05:37.050Z,7.88
2022-11-30T17:08:03.874Z,7.13
2022-11-30T17:10:30.436Z,8.23
2022-11-30T17:12:56.915Z,8.00
2022-11-30T17:15:24.536Z,7.68
2022-11-30T17:17:51.252Z,7.70
2022-11-30T17:20:18.423Z,7.57
2022-11-30T17:22:45.379Z,7.72
2022-11-30T17:25:19.631Z,6.40
2022-11-30T17:27:47.295Z,6.28
2022-11-30T17:30:16.565Z,6.88
2022-11-30T17:32:43.485Z,6.18
2022-11-30T17:35:10.202Z,6.22
2022-11-30T17:37:36.740Z,6.38
2022-11-30T17:40:04.836Z,5.55
2022-11-30T17:42:31.304Z,5.85
2022-11-30T17:44:57.850Z,7.53
2022-11-30T17:47:24.302Z,7.05
2022-11-30T17:49:51.073Z,6.72
2022-11-30T17:52:17.534Z,6.53
2022-11-30T17:54:44.030Z,5.60
2022-11-30T17:57:10.497Z,7.03
2022-11-30T17:59:36.939Z,6.03
2022-11-30T18:02:03.430Z,7.13
2022-11-30T18:04:29.850Z,6.20
2022-11-30T18:06:56.349Z,5.53
2022-11-30T18:09:24.349Z,5.75
2022-11-30T18:11:50.815Z,5.93
2022-11-30T18:14:17.325Z,6.38
2022-11-30T18:16:43.906Z,6.55
2022-11-30T18:19:14.831Z,5.63
2022-11-30T18:21:44.172Z,5.20
2022-11-30T18:24:12.359Z,6.05
2022-11-30T18:26:39.689Z,6.03
2022-11-30T18:29:06.960Z,6.13
2022-11-30T18:31:33.673Z,6.43
2022-11-30T18:34:02.963Z,6.20
2022-11-30T18:36:29.738Z,6.15
2022-11-30T18:38:56.472Z,6.03
2022-11-30T18:41:25.914Z,6.20
2022-11-30T18:43:53.595Z,6.85
2022-11-30T18:46:20.353Z,7.20
2022-11-30T18:48:52.840Z,6.05
2022-11-30T18:51:22.020Z,6.00
2022-11-30T18:53:48.458Z,6.97
2022-11-30T18:56:17.730Z,6.32
2022-11-30T18:58:45.702Z,6.75
2022-11-30T19:01:18.203Z,6.85
2022-11-30T19:03:53.584Z,5.93
2022-11-30T19:06:21.079Z,6.20
2022-11-30T19:08:48.288Z,5.85
2022-11-30T19:11:16.546Z,6.07
2022-11-30T19:13:43.800Z,6.55
2022-11-30T19:16:13.620Z,6.32
2022-11-30T19:18:40.946Z,6.10
2022-11-30T19:21:13.191Z,6.57
2022-11-30T19:23:40.227Z,8.73
2022-11-30T19:26:08.547Z,7.13
2022-11-30T19:28:36.584Z,7.28
2022-11-30T19:31:15.028Z,7.80
2022-11-30T19:33:43.394Z,6.35
2022-11-30T19:36:25.682Z,7.60
2022-11-30T19:38:52.443Z,6.97
2022-11-30T19:41:20.353Z,7.30
2022-11-30T19:43:53.969Z,6.95
2022-11-30T19:46:23.852Z,7.18
2022-11-30T19:48:56.051Z,7.50
2022-11-30T19:51:22.483Z,8.32
2022-11-30T19:53:55.621Z,6.55
2022-11-30T19:56:23.395Z,7.47
2022-11-30T19:58:50.584Z,7.25
2022-11-30T20:01:20.046Z,7.75
2022-11-30T20:03:46.622Z,7.43
2022-11-30T20:06:13.335Z,7.65
2022-11-30T20:08:40.314Z,6.82
2022-11-30T20:11:07.829Z,6.90
2022-11-30T20:13:34.332Z,7.63
2022-11-30T20:16:07.219Z,7.18
2022-11-30T20:18:33.828Z,7.03
2022-11-30T20:21:13.754Z,6.88
2022-11-30T20:23:41.603Z,8.10
2022-11-30T20:26:15.318Z,7.60
2022-11-30T20:28:42.793Z,8.00
2022-11-30T20:31:11.607Z,7.28
2022-11-30T20:33:38.641Z,7.53
2022-11-30T20:36:07.296Z,7.38
2022-11-30T20:38:34.083Z,7.45
2022-11-30T20:41:00.978Z,7.85
2022-11-30T20:43:27.521Z,7.13
2022-11-30T20:45:54.016Z,15.20
2022-11-30T20:48:20.479Z,7.28
2022-11-30T20:51:01.099Z,6.65
2022-11-30T20:53:27.752Z,7.25
2022-11-30T20:55:54.166Z,7.85
2022-11-30T20:58:25.054Z,7.47
2022-11-30T21:00:51.525Z,8.25
2022-11-30T21:03:18.027Z,7.68
2022-11-30T21:05:44.749Z,7.65
2022-11-30T21:08:11.266Z,8.30
2022-11-30T21:10:39.756Z,6.97
2022-11-30T21:13:06.365Z,7.75
2022-11-30T21:15:32.820Z,7.68
2022-11-30T21:17:59.234Z,7.28
2022-11-30T21:20:25.955Z,8.02
2022-11-30T21:22:52.438Z,6.85
2022-11-30T21:25:19.048Z,6.93
2022-11-30T21:27:50.914Z,7.60
2022-11-30T21:30:17.488Z,8.00
2022-11-30T21:32:43.974Z,7.05
2022-11-30T21:35:10.427Z,7.25
2022-11-30T21:37:36.869Z,6.85
2022-11-30T21:40:03.828Z,6.80
2022-11-30T21:42:30.240Z,7.50
2022-11-30T21:44:56.715Z,7.45
2022-11-30T21:47:23.131Z,7.93
2022-11-30T21:49:49.564Z,7.93
2022-11-30T21:52:16.058Z,8.98
2022-11-30T21:54:42.535Z,11.27
2022-11-30T21:57:09.107Z,9.13
2022-11-30T21:59:35.524Z,8.02
2022-11-30T22:02:01.909Z,7.85
2022-11-30T22:04:28.468Z,7.63
2022-11-30T22:06:54.979Z,7.78
2022-11-30T22:09:21.380Z,7.85
2022-11-30T22:11:47.882Z,7.63
2022-11-30T22:14:16.887Z,8.00
2022-11-30T22:16:43.813Z,8.18
2022-11-30T22:19:10.479Z,7.60
2022-11-30T22:21:36.998Z,7.65
2022-11-30T22:24:06.502Z,7.75
2022-11-30T22:26:38.915Z,7.18
2022-11-30T22:29:16.054Z,7.72
2022-11-30T22:31:44.610Z,8.07
2022-11-30T22:34:11.733Z,7.28
2022-11-30T22:36:40.392Z,7.63
2022-11-30T22:39:10.666Z,7.38
2022-11-30T22:41:37.507Z,9.43
2022-11-30T22:44:04.220Z,9.55
2022-11-30T22:46:33.055Z,7.93
2022-11-30T22:49:03.671Z,9.93
2022-11-30T22:51:31.805Z,8.88
2022-11-30T22:53:59.229Z,10.52
2022-11-30T22:56:34.078Z,9.50
2022-11-30T22:59:01.231Z,9.07
2022-11-30T23:01:28.886Z,10.25
2022-11-30T23:03:57.278Z,8.52
2022-11-30T23:06:24.688Z,8.40
2022-11-30T23:08:52.145Z,8.10
2022-11-30T23:11:22.934Z,8.13
2022-11-30T23:13:49.667Z,8.38
2022-11-30T23:16:17.009Z,8.18
2022-11-30T23:18:49.558Z,9.23
2022-11-30T23:21:22.212Z,8.30
2022-11-30T23:23:49.447Z,7.93
2022-11-30T23:26:18.348Z,8.23
2022-11-30T23:28:47.468Z,8.10
2022-11-30T23:31:34.114Z,8.52
2022-11-30T23:34:07.579Z,7.85
2022-11-30T23:36:35.265Z,8.43
2022-11-30T23:39:14.755Z,9.43
2022-11-30T23:41:41.274Z,7.57
2022-11-30T23:44:08.646Z,7.85
2022-11-30T23:46:36.167Z,8.65
2022-11-30T23:49:03.061Z,8.00
2022-11-30T23:51:29.527Z,8.65
2022-11-30T23:53:56.082Z,8.05
2022-11-30T23:56:23.957Z,8.25
2022-11-30T23:58:50.975Z,8.93
